Airfield :
LOGIN :

Register | Disclaimer

   EN    FR    IT 

 










Legend :    VFR   Marginal VFR   IFR   Intensive IFR   Very Intensive IFR
Visi :
Ceiling :
>= 8 km
>= 3000ft
5 to 8 km
1000 to 3000 ft
1500m to 5 km
500 to 1000 ft
800 to 1500m
200 to 500 ft
< 800m
< 200 ft
Symbols :   Thunderstorms  Fog  Heavy snow  Heavy precipitations  Wind > 20 kt
SIGMETs :     Misc.  Thunderstorms  Icing  Turbulence  Mountain Waves  Volcanic Ashes







- Airport Elevation : 424 ft
- IATA code : QGY


LHPR - Györ Per

CURRENT METAR :
  • 201115Z VRB03KT 9999 FEW033 FEW043TCU 21/10 Q1021 RMK BLU

EXPIRED METARs :
  • 201045Z VRB03KT 9999 FEW034 FEW040TCU 21/12 Q1021 RMK BLU
  • 201015Z VRB05KT 9999 FEW032 SCT200 20/12 Q1021 RMK BLU
  • 200945Z 07005KT 010V130 9999 FEW040 SCT083 20/13 Q1021 RMK BLU
  • 200915Z VRB04KT 9999 FEW036 SCT200 20/12 Q1021 RMK BLU
  • 200845Z VRB03KT 9999 FEW033 SCT200 20/11 Q1021 RMK BLU

TAF TAF LHPR
Valid from the 20 at 12:00 until the 20 at 21:00 UTC


201115Z 2012/2021 06005KT 9999 SCT042TCU
BECMG 2013/2015 CAVOK
No reported NOTAMs for that airfield.



MET'MAP, your aeronautical weather chart ! - Copyright ORBIFLY December 2007 - Disclaimer

ORBIFLY MET'MAP TEAM :

Programming & Development : Alexandra Zaïnal
Concept & Development : Baudouin d'Aumeries
Co-Development & Prog : Marc-Olivier Méhu
Technical & hardware support : Manuel Goepfert

Contact : metmap@orbifly.com




SOURCES & CREDITS :

   NOAA